Аэропорт
Международный аэропорт Лос-Анджелес (KLAX)

 KLAX / LAX

United States
US-CA
Лос-Анджелес
 33.94250, -118.40800  / 125 ft

 KLAX 201753Z 29004KT 7SM CLR 19/09 A3012 RMK AO2 SLP199 T01890094 10189 20117 50015


2020 © VATRUS division (Privacy Policy)